createdAt,value
2018-09-16T00:00:22.021Z,17.20
2018-09-16T00:02:49.939Z,17.20
2018-09-16T00:05:17.973Z,17.20
2018-09-16T00:07:45.900Z,17.20
2018-09-16T00:10:13.859Z,17.10
2018-09-16T00:12:41.794Z,17.10
2018-09-16T00:15:09.742Z,17.10
2018-09-16T00:17:37.680Z,17.10
2018-09-16T00:20:05.752Z,17.10
2018-09-16T00:22:33.688Z,17.10
2018-09-16T00:25:01.617Z,17.10
2018-09-16T00:27:29.550Z,17.00
2018-09-16T00:29:57.576Z,17.00
2018-09-16T00:32:31.003Z,17.00
2018-09-16T00:34:58.953Z,17.00
2018-09-16T00:37:26.872Z,17.00
2018-09-16T00:39:54.820Z,17.00
2018-09-16T00:42:22.858Z,17.00
2018-09-16T00:44:50.774Z,17.00
2018-09-16T00:47:18.712Z,17.00
2018-09-16T00:49:46.638Z,17.00
2018-09-16T00:52:14.567Z,17.00
2018-09-16T00:54:42.498Z,17.00
2018-09-16T00:57:10.444Z,17.00
2018-09-16T00:59:42.508Z,17.00
2018-09-16T01:02:10.442Z,16.90
2018-09-16T01:04:38.379Z,16.90
2018-09-16T01:07:06.533Z,16.90
2018-09-16T01:09:34.446Z,16.90
2018-09-16T01:12:02.487Z,16.80
2018-09-16T01:14:30.402Z,16.80
2018-09-16T01:16:58.339Z,16.80
2018-09-16T01:19:28.095Z,16.80
2018-09-16T01:21:56.068Z,16.80
2018-09-16T01:24:23.996Z,16.80
2018-09-16T01:26:55.506Z,16.80
2018-09-16T01:29:23.443Z,16.70
2018-09-16T01:31:51.371Z,16.80
2018-09-16T01:34:19.434Z,16.80
2018-09-16T01:36:47.366Z,16.70
2018-09-16T01:39:15.312Z,16.70
2018-09-16T01:41:43.252Z,16.70
2018-09-16T01:44:11.187Z,16.70
2018-09-16T01:46:39.347Z,16.70
2018-09-16T01:49:07.262Z,16.60
2018-09-16T01:51:35.224Z,16.60
2018-09-16T01:54:03.320Z,16.60
2018-09-16T01:56:31.250Z,16.60
2018-09-16T01:58:59.232Z,16.60
2018-09-16T02:01:27.183Z,16.60
2018-09-16T02:03:55.151Z,16.60
2018-09-16T02:06:23.073Z,16.60
2018-09-16T02:08:51.019Z,16.60
2018-09-16T02:11:18.967Z,16.60
2018-09-16T02:13:46.891Z,16.60
2018-09-16T02:16:14.837Z,16.60
2018-09-16T02:18:42.946Z,16.60
2018-09-16T02:21:10.869Z,16.50
2018-09-16T02:23:38.788Z,16.50
2018-09-16T02:26:06.787Z,16.50
2018-09-16T02:28:34.719Z,16.50
2018-09-16T02:31:02.732Z,16.50
2018-09-16T02:33:30.668Z,16.50
2018-09-16T02:35:58.607Z,16.50
2018-09-16T02:38:26.527Z,16.40
2018-09-16T02:40:54.513Z,16.40
2018-09-16T02:43:22.505Z,16.40
2018-09-16T02:45:50.359Z,16.40
2018-09-16T02:48:18.306Z,16.40
2018-09-16T02:50:46.255Z,16.40
2018-09-16T02:53:14.196Z,16.40
2018-09-16T02:55:42.222Z,16.40
2018-09-16T02:58:10.211Z,16.40
2018-09-16T03:00:38.211Z,16.30
2018-09-16T03:03:06.177Z,16.30
2018-09-16T03:05:39.634Z,16.30
2018-09-16T03:08:07.590Z,16.30
2018-09-16T03:10:35.555Z,16.30
2018-09-16T03:13:03.496Z,16.30
2018-09-16T03:15:31.428Z,16.30
2018-09-16T03:17:59.639Z,16.30
2018-09-16T03:20:27.570Z,16.20
2018-09-16T03:22:55.504Z,16.20
2018-09-16T03:25:23.444Z,16.20
2018-09-16T03:27:51.371Z,16.20
2018-09-16T03:30:19.322Z,16.20
2018-09-16T03:32:47.243Z,16.20
2018-09-16T03:35:15.177Z,16.20
2018-09-16T03:37:43.090Z,16.20
2018-09-16T03:40:11.034Z,16.10
2018-09-16T03:42:38.976Z,16.20
2018-09-16T03:45:07.396Z,16.10
2018-09-16T03:47:35.330Z,16.10
2018-09-16T03:50:03.557Z,16.10
2018-09-16T03:52:31.483Z,16.10
2018-09-16T03:54:59.402Z,16.10
2018-09-16T03:57:27.438Z,16.10
2018-09-16T03:59:55.364Z,16.10
2018-09-16T04:02:23.319Z,16.10
2018-09-16T04:04:51.523Z,16.10
2018-09-16T04:07:19.447Z,16.10
2018-09-16T04:09:47.449Z,16.10
2018-09-16T04:12:15.416Z,16.10
2018-09-16T04:14:43.343Z,16.10
2018-09-16T04:17:11.403Z,16.00
2018-09-16T04:19:39.331Z,16.00
2018-09-16T04:22:07.280Z,16.00
2018-09-16T04:24:35.268Z,16.00
2018-09-16T04:27:03.208Z,16.00
2018-09-16T04:29:31.139Z,16.00
2018-09-16T04:31:59.055Z,16.00
2018-09-16T04:34:27.010Z,16.00
2018-09-16T04:36:54.999Z,16.00
2018-09-16T04:39:22.925Z,16.00
2018-09-16T04:41:50.892Z,16.00
2018-09-16T04:44:22.093Z,16.00
2018-09-16T04:46:50.019Z,16.00
2018-09-16T04:49:17.956Z,16.00
2018-09-16T04:51:45.882Z,16.00
2018-09-16T04:54:14.820Z,16.00
2018-09-16T04:56:42.746Z,16.00
2018-09-16T04:59:10.669Z,16.00
2018-09-16T05:01:38.891Z,16.00
2018-09-16T05:04:06.954Z,16.00
2018-09-16T05:06:34.909Z,16.00
2018-09-16T05:09:02.862Z,16.00
2018-09-16T05:11:30.810Z,16.00
2018-09-16T05:13:58.748Z,16.00
2018-09-16T05:16:26.679Z,16.00
2018-09-16T05:18:54.700Z,16.00
2018-09-16T05:21:22.638Z,16.10
2018-09-16T05:23:50.603Z,16.10
2018-09-16T05:26:18.554Z,16.10
2018-09-16T05:28:46.643Z,16.10
2018-09-16T05:31:14.586Z,16.00
2018-09-16T05:33:42.656Z,16.10
2018-09-16T05:36:10.578Z,16.10
2018-09-16T05:38:38.554Z,16.00
2018-09-16T05:41:06.499Z,16.00
2018-09-16T05:43:34.419Z,16.10
2018-09-16T05:46:03.870Z,16.10
2018-09-16T05:48:31.803Z,16.20
2018-09-16T05:50:59.709Z,16.10
2018-09-16T05:53:27.855Z,16.20
2018-09-16T05:55:55.712Z,16.10
2018-09-16T05:58:23.650Z,16.20
2018-09-16T06:00:51.568Z,16.20
2018-09-16T06:03:19.523Z,16.20
2018-09-16T06:05:47.620Z,16.20
2018-09-16T06:08:15.547Z,16.20
2018-09-16T06:10:43.485Z,16.20
2018-09-16T06:13:11.414Z,16.20
2018-09-16T06:15:43.153Z,16.20
2018-09-16T06:18:11.091Z,16.20
2018-09-16T06:20:39.011Z,16.30
2018-09-16T06:23:06.959Z,16.30
2018-09-16T06:25:35.158Z,16.30
2018-09-16T06:28:03.176Z,16.30
2018-09-16T06:30:31.100Z,16.30
2018-09-16T06:32:59.052Z,16.30
2018-09-16T06:35:26.957Z,16.40
2018-09-16T06:37:54.990Z,16.40
2018-09-16T06:40:22.935Z,16.40
2018-09-16T06:42:51.131Z,16.50
2018-09-16T06:45:19.142Z,16.50
2018-09-16T06:47:47.160Z,16.50
2018-09-16T06:50:15.373Z,16.60
2018-09-16T06:52:43.359Z,16.60
2018-09-16T06:55:11.283Z,16.60
2018-09-16T06:57:39.256Z,16.60
2018-09-16T07:00:07.616Z,16.70
2018-09-16T07:02:35.811Z,16.70
2018-09-16T07:05:03.751Z,16.70
2018-09-16T07:07:31.706Z,16.80
2018-09-16T07:09:59.653Z,16.80
2018-09-16T07:12:27.667Z,16.80
2018-09-16T07:14:55.630Z,16.80
2018-09-16T07:17:23.575Z,16.90
2018-09-16T07:19:51.582Z,16.90
2018-09-16T07:22:19.783Z,16.90
2018-09-16T07:24:47.727Z,17.00
2018-09-16T07:27:15.746Z,17.00
2018-09-16T07:29:43.760Z,17.00
2018-09-16T07:32:11.674Z,17.00
2018-09-16T07:34:39.607Z,17.10
2018-09-16T07:37:07.573Z,17.10
2018-09-16T07:39:35.514Z,17.10
2018-09-16T07:42:03.574Z,17.10
2018-09-16T07:44:31.511Z,17.20
2018-09-16T07:46:59.471Z,17.10
2018-09-16T07:49:27.406Z,17.20
2018-09-16T07:51:55.458Z,17.20
2018-09-16T07:54:23.405Z,17.20
2018-09-16T07:56:51.649Z,17.20
2018-09-16T07:59:19.638Z,17.30
2018-09-16T08:01:47.714Z,17.30
2018-09-16T08:04:15.759Z,17.30
2018-09-16T08:06:43.731Z,17.40
2018-09-16T08:09:11.708Z,17.40
2018-09-16T08:11:39.820Z,17.50
2018-09-16T08:14:07.954Z,17.50
2018-09-16T08:16:35.884Z,17.50
2018-09-16T08:19:03.909Z,17.60
2018-09-16T08:21:31.973Z,17.60
2018-09-16T08:23:59.904Z,17.60
2018-09-16T08:26:27.826Z,17.60
2018-09-16T08:28:55.826Z,17.70
2018-09-16T08:31:23.832Z,17.70
2018-09-16T08:33:51.792Z,17.80
2018-09-16T08:36:19.769Z,17.80
2018-09-16T08:38:47.746Z,17.80
2018-09-16T08:41:15.996Z,17.80
2018-09-16T08:43:43.923Z,17.80
2018-09-16T08:46:11.853Z,17.90
2018-09-16T08:48:39.812Z,17.90
2018-09-16T08:51:08.222Z,18.00
2018-09-16T08:53:36.245Z,18.00
2018-09-16T08:56:04.177Z,18.10
2018-09-16T08:58:32.304Z,18.10
2018-09-16T09:01:00.171Z,18.10
2018-09-16T09:03:28.145Z,18.20
2018-09-16T09:05:56.375Z,18.20
2018-09-16T09:08:24.392Z,18.30
2018-09-16T09:10:52.377Z,18.30
2018-09-16T09:13:20.312Z,18.40
2018-09-16T09:15:48.320Z,18.40
2018-09-16T09:18:16.276Z,18.40
2018-09-16T09:20:44.239Z,18.40
2018-09-16T09:23:12.256Z,18.40
2018-09-16T09:25:40.181Z,18.40
2018-09-16T09:28:08.354Z,18.40
2018-09-16T09:30:36.553Z,18.50
2018-09-16T09:33:04.469Z,18.50
2018-09-16T09:35:32.426Z,18.60
2018-09-16T09:38:00.412Z,18.60
2018-09-16T09:40:28.333Z,18.70
2018-09-16T09:42:56.351Z,18.80
2018-09-16T09:45:24.214Z,18.90
2018-09-16T09:47:52.220Z,19.00
2018-09-16T09:50:20.180Z,19.00
2018-09-16T09:52:48.162Z,19.00
2018-09-16T09:55:16.081Z,19.00
2018-09-16T09:57:44.046Z,19.10
2018-09-16T10:00:16.575Z,19.10
2018-09-16T10:02:44.673Z,19.10
2018-09-16T10:05:12.780Z,19.20
2018-09-16T10:07:40.723Z,19.20
2018-09-16T10:10:08.721Z,19.20
2018-09-16T10:12:36.646Z,19.30
2018-09-16T10:15:04.713Z,19.30
2018-09-16T10:17:32.653Z,19.30
2018-09-16T10:20:00.611Z,19.30
2018-09-16T10:22:28.600Z,19.40
2018-09-16T10:24:56.584Z,19.40
2018-09-16T10:27:24.555Z,19.40
2018-09-16T10:29:52.517Z,19.40
2018-09-16T10:32:20.454Z,19.50
2018-09-16T10:34:48.436Z,19.60
2018-09-16T10:37:16.447Z,19.70
2018-09-16T10:39:44.416Z,19.80
2018-09-16T10:42:12.389Z,19.90
2018-09-16T10:44:40.364Z,19.90
2018-09-16T10:47:08.408Z,19.90
2018-09-16T10:49:36.405Z,19.90
2018-09-16T10:52:04.463Z,19.90
2018-09-16T10:54:32.577Z,19.90
2018-09-16T10:57:00.526Z,20.00
2018-09-16T10:59:28.567Z,20.10
2018-09-16T11:01:56.540Z,20.10
2018-09-16T11:04:24.453Z,20.10
2018-09-16T11:06:52.983Z,20.10
2018-09-16T11:09:20.975Z,20.10
2018-09-16T11:11:48.925Z,20.10
2018-09-16T11:14:16.863Z,20.10
2018-09-16T11:16:44.874Z,20.20
2018-09-16T11:19:12.790Z,20.20
2018-09-16T11:21:40.805Z,20.20
2018-09-16T11:24:08.749Z,20.30
2018-09-16T11:26:36.696Z,20.30
2018-09-16T11:29:04.624Z,20.30
2018-09-16T11:31:32.575Z,20.40
2018-09-16T11:34:00.577Z,20.40
2018-09-16T11:36:28.491Z,20.40
2018-09-16T11:38:56.424Z,20.50
2018-09-16T11:41:24.415Z,20.50
2018-09-16T11:43:52.432Z,20.50
2018-09-16T11:46:20.341Z,20.50
2018-09-16T11:48:48.268Z,20.50
2018-09-16T11:51:16.240Z,20.50
2018-09-16T11:53:44.153Z,20.50
2018-09-16T11:56:12.108Z,20.50
2018-09-16T11:58:40.135Z,20.50
2018-09-16T12:01:08.057Z,20.60
2018-09-16T12:03:36.104Z,20.60
2018-09-16T12:06:04.037Z,20.60
2018-09-16T12:08:31.977Z,20.60
2018-09-16T12:10:59.988Z,20.70
2018-09-16T12:13:27.934Z,20.60
2018-09-16T12:15:55.886Z,20.60
2018-09-16T12:18:23.816Z,20.60
2018-09-16T12:20:51.766Z,20.60
2018-09-16T12:23:19.760Z,20.60
2018-09-16T12:25:47.695Z,20.60
2018-09-16T12:28:15.730Z,20.70
2018-09-16T12:30:43.766Z,20.70
2018-09-16T12:33:11.709Z,20.80
2018-09-16T12:35:39.650Z,20.80
2018-09-16T12:38:07.665Z,20.80
2018-09-16T12:40:36.128Z,20.80
2018-09-16T12:43:04.068Z,20.70
2018-09-16T12:45:32.085Z,20.60
2018-09-16T12:48:00.010Z,20.70
2018-09-16T12:50:27.955Z,20.70
2018-09-16T12:52:55.879Z,20.70
2018-09-16T12:55:23.819Z,20.70
2018-09-16T12:57:51.807Z,20.70
2018-09-16T13:00:19.731Z,20.70
2018-09-16T13:02:47.778Z,20.80
2018-09-16T13:05:15.733Z,20.80
2018-09-16T13:07:43.668Z,20.80
2018-09-16T13:10:11.691Z,20.80
2018-09-16T13:12:40.253Z,20.80
2018-09-16T13:15:08.383Z,20.90
2018-09-16T13:17:36.297Z,20.90
2018-09-16T13:20:04.403Z,20.90
2018-09-16T13:22:35.932Z,20.90
2018-09-16T13:25:03.902Z,20.90
2018-09-16T13:27:31.860Z,21.00
2018-09-16T13:29:59.779Z,21.00
2018-09-16T13:32:27.714Z,21.00
2018-09-16T13:34:55.702Z,21.10
2018-09-16T13:37:23.807Z,21.10
2018-09-16T13:39:51.735Z,21.10
2018-09-16T13:42:19.852Z,21.20
2018-09-16T13:44:47.843Z,21.30
2018-09-16T13:47:15.783Z,21.30
2018-09-16T13:49:43.767Z,21.30
2018-09-16T13:52:11.792Z,21.30
2018-09-16T13:54:39.768Z,21.30
2018-09-16T13:57:07.719Z,21.30
2018-09-16T13:59:35.707Z,21.30
2018-09-16T14:02:03.617Z,21.30
2018-09-16T14:04:31.562Z,21.30
2018-09-16T14:06:59.479Z,21.30
2018-09-16T14:09:27.475Z,21.30
2018-09-16T14:11:55.409Z,21.30
2018-09-16T14:14:23.390Z,21.30
2018-09-16T14:16:51.370Z,21.30
2018-09-16T14:19:19.319Z,21.30
2018-09-16T14:21:48.611Z,21.30
2018-09-16T14:24:16.548Z,21.30
2018-09-16T14:26:44.577Z,21.30
2018-09-16T14:29:12.514Z,21.40
2018-09-16T14:31:40.511Z,21.40
2018-09-16T14:34:08.570Z,21.40
2018-09-16T14:36:36.503Z,21.40
2018-09-16T14:39:05.911Z,21.40
2018-09-16T14:41:33.980Z,21.40
2018-09-16T14:44:01.994Z,21.40
2018-09-16T14:46:29.965Z,21.40
2018-09-16T14:48:58.180Z,21.40
2018-09-16T14:51:26.274Z,21.40
2018-09-16T14:53:54.144Z,21.40
2018-09-16T14:56:22.168Z,21.40
2018-09-16T14:58:50.275Z,21.40
2018-09-16T15:01:18.250Z,21.40
2018-09-16T15:03:46.178Z,21.40
2018-09-16T15:06:14.210Z,21.50
2018-09-16T15:08:42.141Z,21.60
2018-09-16T15:11:10.168Z,21.60
2018-09-16T15:13:38.107Z,21.70
2018-09-16T15:16:06.109Z,21.70
2018-09-16T15:18:34.070Z,21.70
2018-09-16T15:21:02.071Z,21.70
2018-09-16T15:23:30.021Z,21.70
2018-09-16T15:25:57.958Z,21.60
2018-09-16T15:28:26.420Z,21.70
2018-09-16T15:30:54.330Z,21.60
2018-09-16T15:33:22.535Z,21.60
2018-09-16T15:35:50.490Z,21.60
2018-09-16T15:38:18.421Z,21.60
2018-09-16T15:40:46.890Z,21.60
2018-09-16T15:43:15.523Z,21.60
2018-09-16T15:45:43.485Z,21.50
2018-09-16T15:48:11.502Z,21.50
2018-09-16T15:50:39.395Z,21.50
2018-09-16T15:53:07.350Z,21.50
2018-09-16T15:55:35.297Z,21.50
2018-09-16T15:58:03.262Z,21.40
2018-09-16T16:00:31.233Z,21.40
2018-09-16T16:02:59.199Z,21.40
2018-09-16T16:05:27.122Z,21.40
2018-09-16T16:07:55.068Z,21.30
2018-09-16T16:10:23.073Z,21.30
2018-09-16T16:12:50.980Z,21.30
2018-09-16T16:15:18.929Z,21.30
2018-09-16T16:17:46.851Z,21.30
2018-09-16T16:20:14.787Z,21.30
2018-09-16T16:22:42.735Z,21.30
2018-09-16T16:25:11.105Z,21.30
2018-09-16T16:27:39.049Z,21.30
2018-09-16T16:30:07.498Z,21.30
2018-09-16T16:32:35.439Z,21.40
2018-09-16T16:35:03.367Z,21.30
2018-09-16T16:37:31.310Z,21.40
2018-09-16T16:39:59.231Z,21.30
2018-09-16T16:42:27.207Z,21.30
2018-09-16T16:44:55.435Z,21.30
2018-09-16T16:47:23.379Z,21.30
2018-09-16T16:49:51.394Z,21.30
2018-09-16T16:52:19.432Z,21.30
2018-09-16T16:54:47.558Z,21.30
2018-09-16T16:57:15.498Z,21.30
2018-09-16T16:59:43.423Z,21.20
2018-09-16T17:02:11.369Z,21.20
2018-09-16T17:04:39.317Z,21.20
2018-09-16T17:07:07.649Z,21.20
2018-09-16T17:09:35.595Z,21.10
2018-09-16T17:12:03.519Z,21.10
2018-09-16T17:14:31.478Z,21.10
2018-09-16T17:16:59.438Z,21.10
2018-09-16T17:19:27.378Z,21.10
2018-09-16T17:21:55.331Z,21.10
2018-09-16T17:24:23.314Z,21.00
2018-09-16T17:26:51.239Z,21.00
2018-09-16T17:29:19.170Z,20.90
2018-09-16T17:31:47.125Z,20.80
2018-09-16T17:34:15.072Z,20.80
2018-09-16T17:36:43.077Z,20.80
2018-09-16T17:39:12.075Z,20.80
2018-09-16T17:41:40.169Z,20.80
2018-09-16T17:44:08.583Z,20.80
2018-09-16T17:46:36.935Z,20.70
2018-09-16T17:49:04.997Z,20.70
2018-09-16T17:51:33.057Z,20.60
2018-09-16T17:54:01.051Z,20.60
2018-09-16T17:56:29.105Z,20.60
2018-09-16T17:58:57.055Z,20.60
2018-09-16T18:01:25.020Z,20.50
2018-09-16T18:03:52.966Z,20.50
2018-09-16T18:06:20.896Z,20.50
2018-09-16T18:08:48.856Z,20.50
2018-09-16T18:11:16.786Z,20.40
2018-09-16T18:13:44.816Z,20.40
2018-09-16T18:16:12.832Z,20.30
2018-09-16T18:18:41.352Z,20.20
2018-09-16T18:21:09.687Z,20.30
2018-09-16T18:23:37.907Z,20.20
2018-09-16T18:26:05.934Z,20.20
2018-09-16T18:28:33.903Z,20.20
2018-09-16T18:31:01.856Z,20.20
2018-09-16T18:33:29.808Z,20.20
2018-09-16T18:35:57.830Z,20.20
2018-09-16T18:38:25.794Z,20.20
2018-09-16T18:40:53.902Z,20.10
2018-09-16T18:43:21.980Z,20.10
2018-09-16T18:45:50.005Z,20.10
2018-09-16T18:48:18.002Z,20.00
2018-09-16T18:50:46.032Z,20.00
2018-09-16T18:53:14.031Z,19.90
2018-09-16T18:55:41.984Z,20.00
2018-09-16T18:58:09.934Z,19.90
2018-09-16T19:00:37.905Z,19.90
2018-09-16T19:03:05.859Z,19.90
2018-09-16T19:05:33.926Z,19.80
2018-09-16T19:08:01.953Z,19.70
2018-09-16T19:10:29.903Z,19.80
2018-09-16T19:12:57.839Z,19.80
2018-09-16T19:15:26.168Z,19.70
2018-09-16T19:17:54.324Z,19.70
2018-09-16T19:20:22.345Z,19.70
2018-09-16T19:22:50.297Z,19.60
2018-09-16T19:25:18.276Z,19.70
2018-09-16T19:27:46.204Z,19.70
2018-09-16T19:30:14.501Z,19.80
2018-09-16T19:32:42.816Z,19.80
2018-09-16T19:35:10.799Z,19.80
2018-09-16T19:37:38.755Z,19.80
2018-09-16T19:40:06.745Z,19.80
2018-09-16T19:42:34.726Z,19.70
2018-09-16T19:45:02.687Z,19.70
2018-09-16T19:47:30.742Z,19.70
2018-09-16T19:49:58.710Z,19.70
2018-09-16T19:52:26.771Z,19.70
2018-09-16T19:54:54.705Z,19.70
2018-09-16T19:57:22.636Z,19.70
2018-09-16T19:59:50.583Z,19.70
2018-09-16T20:02:24.159Z,19.70
2018-09-16T20:04:52.197Z,19.60
2018-09-16T20:07:20.178Z,19.60
2018-09-16T20:09:48.095Z,19.50
2018-09-16T20:12:16.559Z,19.50
2018-09-16T20:14:44.945Z,19.50
2018-09-16T20:17:12.868Z,19.50
2018-09-16T20:19:40.825Z,19.40
2018-09-16T20:22:09.191Z,19.40
2018-09-16T20:24:37.299Z,19.40
2018-09-16T20:27:05.898Z,19.40
2018-09-16T20:29:33.834Z,19.30
2018-09-16T20:32:01.955Z,19.30
2018-09-16T20:34:29.937Z,19.30
2018-09-16T20:36:57.890Z,19.30
2018-09-16T20:39:25.846Z,19.30
2018-09-16T20:41:54.094Z,19.30
2018-09-16T20:44:22.058Z,19.20
2018-09-16T20:46:50.001Z,19.20
2018-09-16T20:49:18.160Z,19.20
2018-09-16T20:51:46.094Z,19.20
2018-09-16T20:54:14.065Z,19.10
2018-09-16T20:56:42.262Z,19.10
2018-09-16T20:59:10.214Z,19.10
2018-09-16T21:01:38.148Z,19.10
2018-09-16T21:04:06.106Z,19.00
2018-09-16T21:06:34.042Z,19.00
2018-09-16T21:09:01.992Z,19.00
2018-09-16T21:11:29.906Z,19.00
2018-09-16T21:13:57.858Z,18.90
2018-09-16T21:16:25.772Z,19.00
2018-09-16T21:18:53.996Z,18.90
2018-09-16T21:21:21.946Z,18.90
2018-09-16T21:23:49.869Z,18.90
2018-09-16T21:26:17.996Z,18.90
2018-09-16T21:28:45.895Z,18.90
2018-09-16T21:31:13.850Z,18.90
2018-09-16T21:33:41.776Z,18.90
2018-09-16T21:36:09.697Z,18.90
2018-09-16T21:38:37.671Z,18.90
2018-09-16T21:41:05.641Z,18.90
2018-09-16T21:43:33.578Z,18.90
2018-09-16T21:46:01.564Z,18.90
2018-09-16T21:48:29.499Z,18.90
2018-09-16T21:50:57.459Z,18.90
2018-09-16T21:53:25.411Z,18.90
2018-09-16T21:55:53.376Z,18.80
2018-09-16T21:58:21.311Z,18.80
2018-09-16T22:00:52.268Z,18.80
2018-09-16T22:03:20.622Z,18.80
2018-09-16T22:05:48.559Z,18.80
2018-09-16T22:08:16.847Z,18.80
2018-09-16T22:10:45.196Z,18.80
2018-09-16T22:13:13.339Z,18.80
2018-09-16T22:15:42.009Z,18.80
2018-09-16T22:18:09.940Z,18.80
2018-09-16T22:20:38.326Z,18.80
2018-09-16T22:23:06.435Z,18.80
2018-09-16T22:25:34.378Z,18.70
2018-09-16T22:28:02.404Z,18.70
2018-09-16T22:30:30.362Z,18.70
2018-09-16T22:32:58.339Z,18.70
2018-09-16T22:35:26.368Z,18.70
2018-09-16T22:37:54.479Z,18.60
2018-09-16T22:40:22.552Z,18.60
2018-09-16T22:42:50.498Z,18.60
2018-09-16T22:45:18.450Z,18.50
2018-09-16T22:47:46.378Z,18.50
2018-09-16T22:50:14.314Z,18.50
2018-09-16T22:52:42.272Z,18.50
2018-09-16T22:55:10.215Z,18.40
2018-09-16T22:57:38.180Z,18.40
2018-09-16T23:00:07.691Z,18.40
2018-09-16T23:02:35.621Z,18.40
2018-09-16T23:05:03.563Z,18.30
2018-09-16T23:07:31.486Z,18.30
2018-09-16T23:09:59.596Z,18.40
2018-09-16T23:12:27.568Z,18.40
2018-09-16T23:14:55.506Z,18.40
2018-09-16T23:17:27.141Z,18.30
2018-09-16T23:19:55.108Z,18.30
2018-09-16T23:22:23.044Z,18.30
2018-09-16T23:24:51.049Z,18.30
2018-09-16T23:27:19.110Z,18.30
2018-09-16T23:29:47.041Z,18.30
2018-09-16T23:32:14.980Z,18.30
2018-09-16T23:34:42.929Z,18.30
2018-09-16T23:37:10.870Z,18.20
2018-09-16T23:39:38.818Z,18.20
2018-09-16T23:42:06.779Z,18.20
2018-09-16T23:44:34.706Z,18.20
2018-09-16T23:47:02.687Z,18.20
2018-09-16T23:49:30.635Z,18.20
2018-09-16T23:51:58.630Z,18.20
2018-09-16T23:54:26.572Z,18.20
2018-09-16T23:56:54.529Z,18.20
2018-09-16T23:59:22.476Z,18.10
